Time;durP1;ratioP1;P1;durP2;ratioP2;P2;SDS_P1;SDS_P2;PMS_P1;PMS_P2;Temp;Humidity;BMP_temperature;BMP_pressure;BME280_temperature;BME280_humidity;BME280_pressure;Samples;Min_cycle;Max_cycle;Signal;HPM_P1;HPM_P2
2024/01/28 00:01:55;;;;;;;;;;;;;;;15.48;39.98;101632.03;4897048;29;855;-47
2024/01/28 00:04:20;;;;;;;;;;;;;;;16.73;37.95;101631.22;4900818;29;1899;-47
2024/01/28 00:06:46;;;;;;;;;;;;;;;17.02;36.93;101641.94;4892001;29;1122;-51
2024/01/28 00:09:11;;;;;;;;;;;;;;;15.66;40.02;101648.75;4898161;29;1139;-51
2024/01/28 00:11:37;;;;;;;;;;;;;;;16.30;39.01;101655.03;4901420;29;1143;-48
2024/01/28 00:14:02;;;;;;;;;;;;;;;16.46;38.40;101657.63;4889770;29;1126;-51
2024/01/28 00:16:28;;;;;;;;;;;;;;;15.51;40.10;101667.22;4892047;29;1109;-53
2024/01/28 00:18:58;;;;;;;;;;;;;;;15.55;40.27;101673.19;4882638;29;1154;-49
2024/01/28 00:21:26;;;;;;;;;;;;;;;17.14;37.01;101666.09;4882031;29;1035;-46
2024/01/28 00:23:52;;;;;;;;;;;;;;;15.79;39.54;101664.84;4882178;29;1919;-45
2024/01/28 00:26:17;;;;;;;;;;;;;;;15.27;40.50;101664.91;4887318;29;952;-48
2024/01/28 00:28:43;;;;;;;;;;;;;;;16.64;38.48;101667.19;4894444;29;1252;-48
2024/01/28 00:31:10;;;;;;;;;;;;;;;16.11;38.75;101661.38;4892510;29;1254;-52
2024/01/28 00:33:35;;;;;;;;;;;;;;;15.71;40.34;101659.97;4911965;29;1077;-50
2024/01/28 00:36:01;;;;;;;;;;;;;;;17.38;36.61;101658.41;4892013;29;1086;-50
2024/01/28 00:38:31;;;;;;;;;;;;;;;15.88;39.68;101659.00;4896728;29;1110;-50
2024/01/28 00:40:59;;;;;;;;;;;;;;;15.40;40.23;101661.59;4893246;29;1181;-48
2024/01/28 00:43:25;;;;;;;;;;;;;;;15.24;40.99;101662.44;4895537;29;1972;-50
2024/01/28 00:45:50;;;;;;;;;;;;;;;16.47;38.44;101662.84;4904251;29;1190;-50
2024/01/28 00:48:16;;;;;;;;;;;;;;;15.35;40.55;101658.38;4896737;29;1168;-53
2024/01/28 00:50:41;;;;;;;;;;;;;;;17.47;36.64;101667.63;4884265;29;840;-49
2024/01/28 00:53:07;;;;;;;;;;;;;;;16.27;38.52;101670.16;4893290;29;1118;-49
2024/01/28 00:55:33;;;;;;;;;;;;;;;15.56;40.28;101677.56;4888526;29;1046;-51
2024/01/28 00:57:59;;;;;;;;;;;;;;;16.39;38.95;101663.31;4896822;29;1250;-49
2024/01/28 01:00:25;;;;;;;;;;;;;;;16.28;38.31;101673.69;4892872;29;1095;-46
2024/01/28 01:02:52;;;;;;;;;;;;;;;15.44;40.48;101665.81;4888927;29;1972;-51
2024/01/28 01:05:17;;;;;;;;;;;;;;;16.39;38.68;101667.75;4902755;29;1054;-49
2024/01/28 01:07:43;;;;;;;;;;;;;;;15.95;38.99;101662.19;4903269;29;1032;-50
2024/01/28 01:10:09;;;;;;;;;;;;;;;15.35;40.35;101671.63;4903250;29;1134;-49
2024/01/28 01:12:34;;;;;;;;;;;;;;;16.60;38.47;101668.31;4903273;29;1070;-49
2024/01/28 01:15:00;;;;;;;;;;;;;;;15.94;39.12;101664.91;4902485;29;906;-48
2024/01/28 01:17:25;;;;;;;;;;;;;;;15.30;40.86;101666.53;4902391;29;1038;-50
2024/01/28 01:19:51;;;;;;;;;;;;;;;16.91;37.76;101670.09;4903033;29;1142;-49
2024/01/28 01:22:16;;;;;;;;;;;;;;;15.75;39.38;101658.84;4900494;29;1974;-48
2024/01/28 01:24:42;;;;;;;;;;;;;;;15.25;40.89;101650.00;4884351;29;1158;-51
2024/01/28 01:27:07;;;;;;;;;;;;;;;16.94;37.31;101656.63;4896277;29;909;-51
2024/01/28 01:29:33;;;;;;;;;;;;;;;15.62;40.00;101658.66;4893269;29;1351;-59
2024/01/28 01:31:58;;;;;;;;;;;;;;;16.40;38.56;101662.34;4890702;29;1078;-58
2024/01/28 01:34:24;;;;;;;;;;;;;;;16.41;38.13;101657.91;4903013;29;1105;-58
2024/01/28 01:36:50;;;;;;;;;;;;;;;15.53;40.16;101662.66;4902628;29;1133;-52
2024/01/28 01:39:16;;;;;;;;;;;;;;;15.90;39.67;101654.47;4894193;29;1360;-51
2024/01/28 01:41:43;;;;;;;;;;;;;;;15.67;39.53;101648.66;4895895;29;1158;-48
2024/01/28 01:44:09;;;;;;;;;;;;;;;15.27;40.78;101648.16;4897212;29;1918;-47
2024/01/28 01:46:35;;;;;;;;;;;;;;;15.11;41.03;101662.22;4884194;29;1027;-50
2024/01/28 01:49:00;;;;;;;;;;;;;;;16.40;38.40;101661.50;4858608;29;1274505;-47
2024/01/28 01:51:26;;;;;;;;;;;;;;;16.50;38.64;101656.50;4891237;29;1099;-47
2024/01/28 01:53:51;;;;;;;;;;;;;;;17.94;35.64;101659.38;4903126;29;1062;-49
2024/01/28 01:56:17;;;;;;;;;;;;;;;16.58;37.90;101664.03;4918254;29;1225;-46
2024/01/28 01:58:43;;;;;;;;;;;;;;;15.78;39.46;101666.63;4903345;29;1177;-50
2024/01/28 02:01:09;;;;;;;;;;;;;;;15.42;40.13;101667.69;4900301;29;1230;-47
2024/01/28 02:03:34;;;;;;;;;;;;;;;15.54;40.50;101668.81;4885595;29;1954;-45
2024/01/28 02:06:00;;;;;;;;;;;;;;;16.43;38.20;101665.78;4887503;29;1070;-46
2024/01/28 02:08:26;;;;;;;;;;;;;;;15.43;40.50;101672.91;4902853;29;1054;-46
2024/01/28 02:10:51;;;;;;;;;;;;;;;15.19;40.76;101677.72;4903367;29;1237;-49
2024/01/28 02:13:17;;;;;;;;;;;;;;;16.83;37.69;101675.88;4902017;29;1050;-51
2024/01/28 02:15:42;;;;;;;;;;;;;;;15.55;40.29;101681.13;4900034;29;1162;-46
2024/01/28 02:18:08;;;;;;;;;;;;;;;15.65;40.22;101677.06;4893942;29;1113;-46
2024/01/28 02:20:33;;;;;;;;;;;;;;;16.43;38.16;101684.38;4899706;29;1106;-50
2024/01/28 02:22:59;;;;;;;;;;;;;;;15.72;40.00;101680.22;4893640;29;1919;-47
2024/01/28 02:25:24;;;;;;;;;;;;;;;17.68;36.18;101691.19;4899380;29;1095;-51
2024/01/28 02:27:50;;;;;;;;;;;;;;;16.25;38.38;101687.97;4893643;29;1049;-50
2024/01/28 02:30:16;;;;;;;;;;;;;;;15.54;40.15;101690.03;4899468;29;1055;-52
2024/01/28 02:32:48;;;;;;;;;;;;;;;15.23;40.81;101695.16;4902913;29;1047;-47
2024/01/28 02:35:15;;;;;;;;;;;;;;;17.08;37.50;101698.34;4902019;29;1055;-51
2024/01/28 02:37:40;;;;;;;;;;;;;;;16.35;38.28;101706.91;4900140;29;1111;-48
2024/01/28 02:40:06;;;;;;;;;;;;;;;15.55;39.97;101697.06;4900267;29;1190;-50
2024/01/28 02:42:31;;;;;;;;;;;;;;;15.10;41.12;101697.59;4902575;29;1978;-48
2024/01/28 02:44:57;;;;;;;;;;;;;;;16.74;37.78;101694.06;4902533;29;1182;-50
2024/01/28 02:47:23;;;;;;;;;;;;;;;16.09;38.77;101701.28;4901742;29;1040;-53
2024/01/28 02:49:49;;;;;;;;;;;;;;;15.36;40.34;101695.41;4889214;29;1150;-48
2024/01/28 02:52:14;;;;;;;;;;;;;;;16.13;39.42;101702.78;4900569;29;1614;-46
2024/01/28 02:54:40;;;;;;;;;;;;;;;16.45;38.27;101703.75;4902539;29;1022;-50
2024/01/28 02:57:06;;;;;;;;;;;;;;;15.40;40.36;101715.50;4901254;29;1102;-48
2024/01/28 02:59:31;;;;;;;;;;;;;;;17.10;37.23;101725.72;4890032;29;1146;-47
2024/01/28 03:01:57;;;;;;;;;;;;;;;16.00;39.03;101715.91;4902374;29;1097;-49
2024/01/28 03:04:22;;;;;;;;;;;;;;;15.32;40.36;101722.13;4888517;29;1903;-46
2024/01/28 03:06:48;;;;;;;;;;;;;;;15.30;40.91;101724.84;4902265;29;1125;-48
2024/01/28 03:09:13;;;;;;;;;;;;;;;16.75;37.49;101718.81;4913453;29;1261;-50
2024/01/28 03:11:39;;;;;;;;;;;;;;;15.51;39.98;101716.72;4883472;29;1131;-51
2024/01/28 03:14:06;;;;;;;;;;;;;;;15.11;40.88;101722.31;4895691;29;1171;-46
2024/01/28 03:16:32;;;;;;;;;;;;;;;17.02;37.17;101728.78;4883842;29;1067;-47
2024/01/28 03:18:58;;;;;;;;;;;;;;;15.66;39.78;101730.97;4895773;29;1054;-47
2024/01/28 03:21:23;;;;;;;;;;;;;;;16.24;38.76;101736.72;4891738;29;1177;-45
2024/01/28 03:23:49;;;;;;;;;;;;;;;16.51;37.79;101740.56;4899646;29;1907;-48
2024/01/28 03:26:14;;;;;;;;;;;;;;;15.50;39.98;101731.78;4898828;29;1534;-44
2024/01/28 03:28:40;;;;;;;;;;;;;;;15.21;40.74;101749.19;4898434;29;1249;-47
2024/01/28 03:31:06;;;;;;;;;;;;;;;16.67;37.84;101744.97;4901633;29;1225;-47
2024/01/28 03:33:32;;;;;;;;;;;;;;;15.42;39.95;101747.22;4895717;29;1308;-46
2024/01/28 03:35:58;;;;;;;;;;;;;;;15.10;40.66;101753.25;4900962;29;1133;-46
2024/01/28 03:38:23;;;;;;;;;;;;;;;15.81;39.83;101762.91;4897642;29;1050;-48
2024/01/28 03:40:49;;;;;;;;;;;;;;;16.85;37.43;101775.81;4892189;29;1006;-46
2024/01/28 03:43:14;;;;;;;;;;;;;;;15.54;40.05;101772.25;4894346;29;1911;-48
2024/01/28 03:45:40;;;;;;;;;;;;;;;16.28;38.79;101782.56;4901182;29;1153;-45
2024/01/28 03:48:06;;;;;;;;;;;;;;;16.87;37.15;101794.34;4889094;29;1414;-48
2024/01/28 03:50:31;;;;;;;;;;;;;;;15.57;39.86;101795.97;4886764;29;1097;-45
2024/01/28 03:52:57;;;;;;;;;;;;;;;15.19;40.92;101791.69;4900682;29;1093;-49
2024/01/28 03:55:22;;;;;;;;;;;;;;;17.33;36.63;101800.59;4900900;29;1078;-47
2024/01/28 03:57:48;;;;;;;;;;;;;;;15.82;39.52;101801.78;4901459;29;1178;-48
2024/01/28 04:00:13;;;;;;;;;;;;;;;15.32;40.85;101810.47;4901568;29;1415;-49
2024/01/28 04:02:39;;;;;;;;;;;;;;;16.46;38.29;101809.03;4900046;29;1903;-49
2024/01/28 04:05:05;;;;;;;;;;;;;;;15.65;40.10;101815.00;4883225;29;1056;-50
2024/01/28 04:07:30;;;;;;;;;;;;;;;15.18;40.96;101825.28;4898193;29;1202;-51
2024/01/28 04:09:56;;;;;;;;;;;;;;;17.20;37.22;101825.25;4891634;29;1117;-48
2024/01/28 04:12:22;;;;;;;;;;;;;;;16.48;37.98;101831.88;4895059;29;1083;-51
2024/01/28 04:14:47;;;;;;;;;;;;;;;15.52;40.23;101828.03;4891261;29;1217;-51
2024/01/28 04:17:13;;;;;;;;;;;;;;;17.04;37.48;101829.72;4885164;29;1434;-51
2024/01/28 04:19:38;;;;;;;;;;;;;;;16.69;38.04;101826.34;4883916;29;1506;-49
2024/01/28 04:22:04;;;;;;;;;;;;;;;15.77;39.96;101833.84;4900055;29;1143;-49
2024/01/28 04:24:30;;;;;;;;;;;;;;;17.17;37.15;101841.38;4889387;29;1907;-50
2024/01/28 04:26:55;;;;;;;;;;;;;;;16.79;37.24;101845.28;4894058;29;1109;-52
2024/01/28 04:29:21;;;;;;;;;;;;;;;15.77;39.89;101845.34;4882650;29;1031;-52
2024/01/28 04:31:46;;;;;;;;;;;;;;;15.87;39.78;101845.72;4886716;29;1019;-54
2024/01/28 04:34:12;;;;;;;;;;;;;;;16.99;37.31;101854.78;4900680;29;1058;-52
2024/01/28 04:36:37;;;;;;;;;;;;;;;15.76;39.72;101848.06;4899677;29;1316;-54
2024/01/28 04:39:03;;;;;;;;;;;;;;;17.49;36.57;101857.28;4897011;29;1593;-54
2024/01/28 04:41:28;;;;;;;;;;;;;;;16.59;37.86;101849.91;4899792;29;1200;-53
2024/01/28 04:43:54;;;;;;;;;;;;;;;15.77;39.53;101858.59;4889670;29;1902;-53
2024/01/28 04:46:20;;;;;;;;;;;;;;;15.44;40.00;101862.03;4899100;29;1122;-51
2024/01/28 04:48:45;;;;;;;;;;;;;;;16.80;37.89;101881.53;4889827;29;1138;-52
2024/01/28 04:51:11;;;;;;;;;;;;;;;16.65;37.59;101859.31;4885282;29;1114;-51
2024/01/28 04:53:36;;;;;;;;;;;;;;;15.65;39.95;101870.69;4892862;29;1419;-52
2024/01/28 04:56:02;;;;;;;;;;;;;;;15.96;39.85;101868.25;4900292;29;1033;-48
2024/01/28 04:58:28;;;;;;;;;;;;;;;16.33;38.42;101868.09;4899656;29;924;-49
2024/01/28 05:00:54;;;;;;;;;;;;;;;15.60;39.70;101870.06;4898135;29;1306;-49
2024/01/28 05:03:20;;;;;;;;;;;;;;;17.07;37.51;101872.06;4887376;29;1986;-47
2024/01/28 05:05:45;;;;;;;;;;;;;;;15.82;39.27;101868.97;4899654;29;1151;-45
2024/01/28 05:08:11;;;;;;;;;;;;;;;15.47;40.70;101884.88;4900112;29;1066;-48
2024/01/28 05:10:37;;;;;;;;;;;;;;;17.54;36.11;101888.06;4886042;29;1118;-49
2024/01/28 05:13:03;;;;;;;;;;;;;;;15.88;39.30;101883.72;4889649;29;1238;-46
2024/01/28 05:15:28;;;;;;;;;;;;;;;15.46;40.51;101884.03;4899810;29;1058;-45
2024/01/28 05:17:54;;;;;;;;;;;;;;;15.47;40.39;101882.22;4900660;29;1171;-44
2024/01/28 05:20:19;;;;;;;;;;;;;;;16.68;37.90;101891.06;4899581;29;1149;-48
2024/01/28 05:22:45;;;;;;;;;;;;;;;16.26;38.41;101872.06;4888939;29;1984;-44
2024/01/28 05:25:11;;;;;;;;;;;;;;;15.95;38.85;101886.91;4887560;29;1038;-46
2024/01/28 05:27:36;;;;;;;;;;;;;;;15.76;39.15;101887.88;4898690;29;1150;-50
2024/01/28 05:30:03;;;;;;;;;;;;;;;15.53;39.87;101896.03;4903772;29;1071;-50
2024/01/28 05:32:28;;;;;;;;;;;;;;;15.41;40.16;101896.66;4904024;29;1221;-50
2024/01/28 05:34:55;;;;;;;;;;;;;;;15.21;40.51;101902.94;4903870;29;1158;-49
2024/01/28 05:37:20;;;;;;;;;;;;;;;15.52;40.04;101904.94;4891707;29;1217;-46
2024/01/28 05:39:46;;;;;;;;;;;;;;;16.94;37.16;101911.78;4903209;29;1050;-46
2024/01/28 05:42:11;;;;;;;;;;;;;;;16.75;37.21;101916.31;4891523;29;1105;-48
2024/01/28 05:44:37;;;;;;;;;;;;;;;15.96;38.62;101907.19;4903379;29;1990;-52
2024/01/28 05:47:03;;;;;;;;;;;;;;;15.64;39.48;101922.03;4903445;29;1106;-50
2024/01/28 05:49:28;;;;;;;;;;;;;;;15.35;40.19;101918.19;4903238;29;1227;-49
2024/01/28 05:51:54;;;;;;;;;;;;;;;16.29;38.27;101922.34;4891172;29;1221;-46
2024/01/28 05:54:20;;;;;;;;;;;;;;;17.35;36.27;101927.22;4903558;29;1157;-46
2024/01/28 05:56:45;;;;;;;;;;;;;;;16.45;37.77;101921.53;4897226;29;1127;-47
2024/01/28 05:59:11;;;;;;;;;;;;;;;15.78;38.94;101923.13;4897365;29;1094;-49
2024/01/28 06:01:36;;;;;;;;;;;;;;;15.57;39.44;101939.19;4884777;29;1022;-48
2024/01/28 06:04:02;;;;;;;;;;;;;;;15.48;39.70;101948.44;4888897;29;1970;-47
2024/01/28 06:06:27;;;;;;;;;;;;;;;16.94;37.01;101944.53;4891253;29;1059;-47
2024/01/28 06:08:53;;;;;;;;;;;;;;;16.82;37.13;101937.25;4903316;29;1245;-47
2024/01/28 06:11:18;;;;;;;;;;;;;;;16.05;38.57;101945.72;4896666;29;1086;-49
2024/01/28 06:13:44;;;;;;;;;;;;;;;15.63;39.42;101948.66;4897591;29;1023;-47
2024/01/28 06:16:09;;;;;;;;;;;;;;;15.34;39.83;101951.78;4889295;29;1151;-45
2024/01/28 06:18:41;;;;;;;;;;;;;;;16.06;38.88;101956.25;4898851;29;1041;-46
2024/01/28 06:21:06;;;;;;;;;;;;;;;17.29;36.34;101954.19;4890873;29;1089;-52
2024/01/28 06:23:32;;;;;;;;;;;;;;;16.53;37.56;101952.03;4901934;29;1902;-44
2024/01/28 06:25:57;;;;;;;;;;;;;;;15.92;38.66;101964.88;4902676;29;1210;-51
2024/01/28 06:28:23;;;;;;;;;;;;;;;15.62;39.44;101970.78;4902382;29;1046;-50
2024/01/28 06:30:48;;;;;;;;;;;;;;;15.54;39.80;101969.38;4897348;29;1075;-49
2024/01/28 06:33:15;;;;;;;;;;;;;;;16.94;36.93;101970.25;4902749;29;1069;-52
2024/01/28 06:35:40;;;;;;;;;;;;;;;17.15;36.40;101967.41;4890419;29;1146;-51
2024/01/28 06:38:06;;;;;;;;;;;;;;;16.23;38.35;101973.09;4901358;29;1137;-52
2024/01/28 06:40:31;;;;;;;;;;;;;;;15.73;39.26;101976.41;4894252;29;1225;-51
2024/01/28 06:42:57;;;;;;;;;;;;;;;15.49;39.61;101976.69;4896638;29;1984;-51
2024/01/28 06:45:23;;;;;;;;;;;;;;;16.24;38.37;101972.16;4884233;29;1154;-50
2024/01/28 06:47:50;;;;;;;;;;;;;;;17.32;36.24;101977.94;4896156;29;1031;-51
2024/01/28 06:50:15;;;;;;;;;;;;;;;16.46;37.78;101971.91;4883380;29;1217;-50
2024/01/28 06:52:44;;;;;;;;;;;;;;;15.86;38.87;101971.38;4893931;29;1113;-51
2024/01/28 06:55:10;;;;;;;;;;;;;;;15.51;39.61;101977.50;4897927;29;1039;-50
2024/01/28 06:57:35;;;;;;;;;;;;;;;15.79;39.28;101975.25;4894160;29;1402;-52
2024/01/28 07:00:01;;;;;;;;;;;;;;;17.14;36.57;101963.88;4902138;29;1075;-44
2024/01/28 07:02:26;;;;;;;;;;;;;;;16.72;37.27;101968.78;4890147;29;1907;-48
2024/01/28 07:04:52;;;;;;;;;;;;;;;15.98;38.57;101966.38;4895625;29;971;-49
2024/01/28 07:07:18;;;;;;;;;;;;;;;15.61;39.67;101982.34;4895705;29;1158;-48
2024/01/28 07:09:43;;;;;;;;;;;;;;;15.39;39.92;101978.94;4883858;29;1163;-50
2024/01/28 07:12:09;;;;;;;;;;;;;;;16.45;37.80;101964.03;4883474;29;1062;-46
2024/01/28 07:14:34;;;;;;;;;;;;;;;17.50;36.02;101980.47;4883051;29;1139;-48
2024/01/28 07:17:00;;;;;;;;;;;;;;;16.60;37.35;101976.47;4895452;29;1133;-48
2024/01/28 07:19:25;;;;;;;;;;;;;;;15.99;38.84;101976.06;4889096;29;1331;-50
2024/01/28 07:21:51;;;;;;;;;;;;;;;15.65;39.59;101982.09;4889577;29;1142;-49
2024/01/28 07:24:17;;;;;;;;;;;;;;;15.47;40.08;101983.88;4892725;29;1919;-46
2024/01/28 07:26:43;;;;;;;;;;;;;;;16.92;37.18;101986.28;4902071;29;1058;-49
2024/01/28 07:29:09;;;;;;;;;;;;;;;16.80;37.16;101989.63;4883122;29;1034;-48
2024/01/28 07:31:34;;;;;;;;;;;;;;;16.03;38.64;101989.09;4882607;29;1121;-50
2024/01/28 07:34:01;;;;;;;;;;;;;;;15.59;39.26;101989.50;4889149;29;913;-49
2024/01/28 07:36:28;;;;;;;;;;;;;;;16.08;38.90;101994.19;4901573;29;1074;-51
2024/01/28 07:38:54;;;;;;;;;;;;;;;17.35;36.42;101991.06;4896676;29;1218;-47
2024/01/28 07:41:19;;;;;;;;;;;;;;;16.60;37.53;102000.38;4900931;29;904;-52
2024/01/28 07:43:45;;;;;;;;;;;;;;;15.98;38.98;102000.88;4910269;29;1903;-52
2024/01/28 07:46:10;;;;;;;;;;;;;;;15.58;39.84;102014.31;4894981;29;1070;-46
2024/01/28 07:48:36;;;;;;;;;;;;;;;16.13;38.80;102012.56;4899081;29;1221;-50
2024/01/28 07:51:02;;;;;;;;;;;;;;;17.32;36.47;102004.53;4888743;29;1062;-48
2024/01/28 07:53:28;;;;;;;;;;;;;;;16.54;37.49;102011.34;4887805;29;1375;-50
2024/01/28 07:55:53;;;;;;;;;;;;;;;15.90;38.67;102006.56;4882921;29;1117;-51
2024/01/28 07:58:19;;;;;;;;;;;;;;;15.62;39.50;102007.91;4883677;29;1027;-48
2024/01/28 08:00:44;;;;;;;;;;;;;;;15.41;39.80;102011.53;4894852;29;1332;-49
2024/01/28 08:03:10;;;;;;;;;;;;;;;16.84;37.11;102009.78;4894952;29;1903;-48
2024/01/28 08:05:35;;;;;;;;;;;;;;;17.37;35.99;102006.94;4882666;29;939;-52
2024/01/28 08:08:01;;;;;;;;;;;;;;;16.38;37.71;101998.84;4898670;29;1134;-51
2024/01/28 08:10:26;;;;;;;;;;;;;;;15.86;39.00;102007.66;4894636;29;1044;-52
2024/01/28 08:12:52;;;;;;;;;;;;;;;15.54;39.53;102010.94;4900268;29;1042;-53
2024/01/28 08:15:19;;;;;;;;;;;;;;;16.11;38.72;101999.34;4894829;29;1284;-51
2024/01/28 08:17:45;;;;;;;;;;;;;;;17.33;36.33;102000.09;4900726;29;831;-51
2024/01/28 08:20:11;;;;;;;;;;;;;;;16.84;37.08;102007.13;4895809;29;1222;-51
2024/01/28 08:22:37;;;;;;;;;;;;;;;16.07;38.49;102003.09;4893649;29;1915;-50
2024/01/28 08:25:03;;;;;;;;;;;;;;;15.71;39.46;102004.84;4894829;29;1119;-50
2024/01/28 08:27:30;;;;;;;;;;;;;;;15.50;39.91;102017.31;4889612;29;1074;-52
2024/01/28 08:29:55;;;;;;;;;;;;;;;16.32;38.36;102003.63;4897086;29;1170;-49
2024/01/28 08:32:21;;;;;;;;;;;;;;;17.44;36.23;101999.47;4890088;29;1214;-47
2024/01/28 08:34:49;;;;;;;;;;;;;;;16.80;36.93;102009.06;4886246;29;1158;-51
2024/01/28 08:37:15;;;;;;;;;;;;;;;16.13;38.43;102010.72;4881986;29;1019;-45
2024/01/28 08:39:40;;;;;;;;;;;;;;;15.79;38.99;102002.66;4884036;29;1216;-50
2024/01/28 08:42:06;;;;;;;;;;;;;;;15.55;39.84;102020.63;4885978;29;878;-50
2024/01/28 08:44:31;;;;;;;;;;;;;;;15.42;40.08;102015.03;4893857;29;1911;-49
2024/01/28 08:46:57;;;;;;;;;;;;;;;16.88;37.28;102022.81;4900631;29;1276;-51
2024/01/28 08:49:22;;;;;;;;;;;;;;;17.31;36.38;102017.91;4899003;29;1132;-50
2024/01/28 08:51:48;;;;;;;;;;;;;;;16.31;38.18;102028.47;4881838;29;1042;-54
2024/01/28 08:54:14;;;;;;;;;;;;;;;15.92;39.09;102041.84;4884305;29;934;-49
2024/01/28 08:56:39;;;;;;;;;;;;;;;15.65;39.54;102028.97;4900408;29;1113;-49
2024/01/28 08:59:05;;;;;;;;;;;;;;;15.46;40.19;102036.97;4892645;29;1074;-51
2024/01/28 09:01:30;;;;;;;;;;;;;;;16.89;37.23;102044.94;4887720;29;1028;-51
2024/01/28 09:03:56;;;;;;;;;;;;;;;17.05;36.74;102049.44;4892274;29;1887;-45
2024/01/28 09:06:22;;;;;;;;;;;;;;;16.18;38.52;102041.50;4897646;29;1074;-51
2024/01/28 09:08:47;;;;;;;;;;;;;;;15.66;39.69;102041.34;4892430;29;1128;-47
2024/01/28 09:11:13;;;;;;;;;;;;;;;15.49;39.92;102031.53;4885123;29;1202;-48
2024/01/28 09:13:38;;;;;;;;;;;;;;;16.36;38.35;102048.56;4895625;29;1055;-53
2024/01/28 09:16:04;;;;;;;;;;;;;;;17.42;36.22;102044.78;4886954;29;1205;-52
2024/01/28 09:18:29;;;;;;;;;;;;;;;16.98;36.70;102049.75;4894960;29;1032;-50
2024/01/28 09:20:55;;;;;;;;;;;;;;;16.17;38.53;102045.97;4890776;29;1150;-50
2024/01/28 09:23:20;;;;;;;;;;;;;;;15.88;39.28;102056.22;4885928;29;1903;-53
2024/01/28 09:25:46;;;;;;;;;;;;;;;15.55;39.63;102055.09;4896692;29;1034;-52
2024/01/28 09:28:12;;;;;;;;;;;;;;;16.19;38.52;102046.75;4890543;29;1234;-48
2024/01/28 09:30:41;;;;;;;;;;;;;;;17.36;36.27;102058.41;4910328;29;1218;-53
2024/01/28 09:33:08;;;;;;;;;;;;;;;16.56;37.96;102053.75;4895062;29;1308;-50
2024/01/28 09:35:34;;;;;;;;;;;;;;;15.96;38.95;102054.03;4890329;29;1213;-52
2024/01/28 09:37:59;;;;;;;;;;;;;;;15.61;39.43;102048.66;4903864;29;1133;-52
2024/01/28 09:40:25;;;;;;;;;;;;;;;15.90;39.36;102043.69;4887615;29;1077;-55
2024/01/28 09:43:09;;;;;;;;;;;;;;;17.20;36.79;102050.44;4900337;29;1982;-54
2024/01/28 09:45:34;;;;;;;;;;;;;;;16.83;37.21;102054.09;4892344;29;1308;-51
2024/01/28 09:48:01;;;;;;;;;;;;;;;16.05;38.92;102050.06;4894646;29;1034;-54
2024/01/28 09:50:27;;;;;;;;;;;;;;;15.76;39.08;102047.06;4908916;29;1084;-59
2024/01/28 09:52:53;;;;;;;;;;;;;;;15.52;39.91;102040.19;4899038;29;1416;-49
2024/01/28 09:55:18;;;;;;;;;;;;;;;16.59;38.11;102046.50;4899514;29;1174;-51
2024/01/28 09:57:44;;;;;;;;;;;;;;;17.53;36.10;102046.84;4900052;29;1171;-50
2024/01/28 10:00:10;;;;;;;;;;;;;;;16.55;37.94;102050.22;4896655;29;1160;-52
2024/01/28 10:02:40;;;;;;;;;;;;;;;15.90;38.88;102049.88;4903019;29;1982;-52
2024/01/28 10:05:10;;;;;;;;;;;;;;;15.65;39.41;102051.06;4899068;29;1142;-52
2024/01/28 10:07:43;;;;;;;;;;;;;;;15.42;40.32;102049.53;4900275;29;1105;-53
2024/01/28 10:10:08;;;;;;;;;;;;;;;16.92;37.21;102049.22;4894745;29;1175;-52
2024/01/28 10:12:34;;;;;;;;;;;;;;;17.41;36.16;102048.38;4886385;29;1097;-52
2024/01/28 10:15:00;;;;;;;;;;;;;;;16.36;38.14;102045.03;4885082;29;1150;-51
2024/01/28 10:17:25;;;;;;;;;;;;;;;15.89;38.93;102036.69;4884150;29;1101;-53
2024/01/28 10:19:51;;;;;;;;;;;;;;;15.61;39.66;102048.66;4884344;29;1007;-52
2024/01/28 10:22:17;;;;;;;;;;;;;;;15.43;40.19;102057.41;4900712;29;1070;-51
2024/01/28 10:24:43;;;;;;;;;;;;;;;16.85;37.33;102048.72;4893778;29;1910;-49
2024/01/28 10:27:08;;;;;;;;;;;;;;;17.49;36.05;102055.94;4899476;29;1148;-51
2024/01/28 10:29:34;;;;;;;;;;;;;;;16.47;37.81;102057.75;4892325;29;1043;-49
2024/01/28 10:32:01;;;;;;;;;;;;;;;15.91;38.95;102059.53;4884143;29;1031;-50
2024/01/28 10:34:26;;;;;;;;;;;;;;;15.56;39.53;102062.13;4889262;29;1031;-46
2024/01/28 10:36:52;;;;;;;;;;;;;;;15.39;40.19;102070.88;4898521;29;1166;-49
2024/01/28 10:39:17;;;;;;;;;;;;;;;16.56;38.25;102064.38;4891469;29;1030;-49
2024/01/28 10:41:43;;;;;;;;;;;;;;;17.44;36.23;102064.19;4903522;29;1161;-45
2024/01/28 10:44:09;;;;;;;;;;;;;;;16.46;38.12;102062.22;4888763;29;1964;-49
2024/01/28 10:46:38;;;;;;;;;;;;;;;15.92;39.12;102065.72;4897927;29;1130;-47
2024/01/28 10:49:08;;;;;;;;;;;;;;;15.58;40.07;102048.81;4900171;29;1063;-49
2024/01/28 10:51:35;;;;;;;;;;;;;;;16.34;38.71;102047.75;4886678;29;1237;-50
2024/01/28 10:54:09;;;;;;;;;;;;;;;17.45;36.30;102051.75;4895716;29;1070;-54
2024/01/28 10:56:36;;;;;;;;;;;;;;;16.63;37.50;102066.63;4889137;29;1197;-53
2024/01/28 10:59:01;;;;;;;;;;;;;;;15.98;38.98;102068.09;4917079;29;1070;-54
2024/01/28 11:01:27;;;;;;;;;;;;;;;15.66;39.57;102070.50;4902636;29;1027;-52
2024/01/28 11:03:53;;;;;;;;;;;;;;;15.46;39.89;102074.09;4916904;29;2002;-50
2024/01/28 11:06:18;;;;;;;;;;;;;;;16.74;37.65;102068.75;4912943;29;1103;-53
2024/01/28 11:08:47;;;;;;;;;;;;;;;17.49;36.23;102062.13;4913656;29;1196;-53
2024/01/28 11:11:12;;;;;;;;;;;;;;;16.45;38.11;102060.47;4896764;29;1060;-55
2024/01/28 11:13:38;;;;;;;;;;;;;;;15.94;38.84;102057.69;4901935;29;1205;-57
2024/01/28 11:16:07;;;;;;;;;;;;;;;15.61;39.62;102061.91;4898378;29;1241;-60
2024/01/28 11:18:32;;;;;;;;;;;;;;;16.34;38.52;102063.69;4894979;29;963;-54
2024/01/28 11:21:08;;;;;;;;;;;;;;;17.40;36.18;102059.94;4896009;29;1221;-55
2024/01/28 11:23:34;;;;;;;;;;;;;;;16.47;37.77;102068.38;4901567;29;1967;-54
2024/01/28 11:26:00;;;;;;;;;;;;;;;15.91;39.29;102064.84;4915084;29;1365;-57
2024/01/28 11:28:25;;;;;;;;;;;;;;;15.64;39.39;102077.69;4900022;29;1379;-55
2024/01/28 11:30:53;;;;;;;;;;;;;;;15.73;39.80;102071.91;4889622;29;1121;-53
2024/01/28 11:33:19;;;;;;;;;;;;;;;17.10;36.91;102082.84;4901734;29;1107;-57
2024/01/28 11:35:44;;;;;;;;;;;;;;;17.08;36.63;102073.19;4889889;29;1154;-57
2024/01/28 11:38:14;;;;;;;;;;;;;;;16.30;38.18;102078.06;4901873;29;1014;-57
2024/01/28 11:40:40;;;;;;;;;;;;;;;15.81;39.15;102068.91;4901270;29;1047;-53
2024/01/28 11:43:06;;;;;;;;;;;;;;;15.54;39.80;102072.81;4900588;29;1915;-54
2024/01/28 11:45:32;;;;;;;;;;;;;;;15.65;39.54;102063.47;4894504;29;1039;-56
2024/01/28 11:47:58;;;;;;;;;;;;;;;17.10;36.93;102071.34;4901354;29;1138;-61
2024/01/28 11:50:23;;;;;;;;;;;;;;;17.50;35.93;102068.28;4883167;29;1827;-63
2024/01/28 11:52:49;;;;;;;;;;;;;;;16.41;38.06;102064.25;4894164;29;1113;-57
2024/01/28 11:55:15;;;;;;;;;;;;;;;15.97;38.84;102071.66;4894308;29;1082;-58
2024/01/28 11:57:42;;;;;;;;;;;;;;;15.67;39.68;102078.41;4900729;29;1151;-60
2024/01/28 12:00:09;;;;;;;;;;;;;;;15.59;39.93;102069.06;4894849;29;1111;-60
2024/01/28 12:02:39;;;;;;;;;;;;;;;17.02;37.03;102074.38;4896483;29;1899;-56
2024/01/28 12:05:04;;;;;;;;;;;;;;;16.97;36.88;102069.31;4893499;29;928;-55
2024/01/28 12:07:31;;;;;;;;;;;;;;;16.21;38.64;102076.75;4895481;29;1089;-59
2024/01/28 12:09:58;;;;;;;;;;;;;;;15.75;39.44;102088.63;4896703;29;1121;-57
2024/01/28 12:12:24;;;;;;;;;;;;;;;15.55;39.83;102079.84;4897054;29;1150;-57
2024/01/28 12:14:49;;;;;;;;;;;;;;;16.03;38.89;102076.69;4898243;29;1066;-54
2024/01/28 12:17:15;;;;;;;;;;;;;;;17.30;36.67;102080.88;4896460;29;1253;-56
2024/01/28 12:19:41;;;;;;;;;;;;;;;16.85;37.33;102076.13;4892399;29;1012;-55
2024/01/28 12:22:09;;;;;;;;;;;;;;;16.06;38.97;102077.50;4896683;29;1082;-54
2024/01/28 12:24:35;;;;;;;;;;;;;;;15.74;39.57;102073.66;4900025;29;1988;-52
2024/01/28 12:27:00;;;;;;;;;;;;;;;15.54;40.01;102086.09;4896586;29;1110;-52
2024/01/28 12:29:26;;;;;;;;;;;;;;;16.96;37.50;102080.91;4900803;29;1154;-58
2024/01/28 12:31:52;;;;;;;;;;;;;;;17.31;36.40;102085.28;4882277;29;1177;-55
2024/01/28 12:34:17;;;;;;;;;;;;;;;16.27;38.34;102088.84;4882146;29;1089;-55
2024/01/28 12:36:43;;;;;;;;;;;;;;;15.89;39.24;102089.75;4901368;29;1162;-57
2024/01/28 12:39:08;;;;;;;;;;;;;;;15.57;40.03;102093.03;4895928;29;1146;-55
2024/01/28 12:41:34;;;;;;;;;;;;;;;15.96;39.20;102098.28;4888086;29;1166;-53